createdAt,value
2017-09-06T00:01:13.698Z,19.40
2017-09-06T00:03:43.689Z,19.41
2017-09-06T00:06:13.316Z,19.35
2017-09-06T00:08:43.597Z,19.35
2017-09-06T00:11:13.471Z,19.33
2017-09-06T00:13:43.587Z,19.29
2017-09-06T00:16:12.739Z,19.31
2017-09-06T00:18:43.519Z,19.28
2017-09-06T00:21:12.968Z,19.32
2017-09-06T00:23:43.367Z,19.23
2017-09-06T00:26:13.271Z,19.24
2017-09-06T00:28:44.332Z,19.25
2017-09-06T00:31:13.730Z,19.23
2017-09-06T00:33:43.823Z,19.25
2017-09-06T00:36:13.226Z,19.26
2017-09-06T00:38:43.635Z,19.20
2017-09-06T00:41:13.643Z,19.16
2017-09-06T00:43:43.308Z,19.24
2017-09-06T00:46:12.862Z,19.24
2017-09-06T00:48:44.048Z,19.22
2017-09-06T00:51:13.659Z,19.26
2017-09-06T00:53:43.130Z,19.26
2017-09-06T00:56:13.323Z,19.20
2017-09-06T00:58:43.212Z,19.18
2017-09-06T01:01:12.827Z,19.22
2017-09-06T01:03:43.494Z,19.24
2017-09-06T01:06:13.060Z,19.20
2017-09-06T01:08:43.824Z,19.19
2017-09-06T01:11:13.843Z,19.24
2017-09-06T01:13:43.587Z,19.26
2017-09-06T01:16:13.126Z,19.21
2017-09-06T01:18:43.494Z,19.29
2017-09-06T01:21:12.978Z,19.23
2017-09-06T01:23:43.929Z,19.22
2017-09-06T01:26:13.811Z,19.20
2017-09-06T01:28:43.463Z,19.27
2017-09-06T01:31:13.251Z,19.24
2017-09-06T01:33:43.759Z,19.30
2017-09-06T01:36:13.263Z,19.30
2017-09-06T01:38:43.591Z,19.34
2017-09-06T01:41:13.151Z,19.29
2017-09-06T01:43:43.736Z,19.26
2017-09-06T01:46:13.566Z,19.30
2017-09-06T01:48:45.113Z,19.30
2017-09-06T01:51:14.666Z,19.33
2017-09-06T01:53:44.326Z,19.26
2017-09-06T01:56:14.300Z,19.33
2017-09-06T01:58:43.752Z,19.37
2017-09-06T02:01:13.299Z,19.34
2017-09-06T02:03:44.036Z,19.30
2017-09-06T02:06:13.631Z,19.32
2017-09-06T02:08:43.695Z,19.37
2017-09-06T02:11:13.695Z,19.35
2017-09-06T02:13:43.428Z,19.36
2017-09-06T02:16:12.607Z,19.37
2017-09-06T02:18:44.584Z,19.34
2017-09-06T02:21:14.007Z,19.35
2017-09-06T02:23:43.852Z,19.42
2017-09-06T02:26:13.814Z,19.31
2017-09-06T02:28:44.012Z,19.36
2017-09-06T02:31:13.494Z,19.36
2017-09-06T02:33:43.943Z,19.35
2017-09-06T02:36:13.478Z,19.31
2017-09-06T02:38:42.999Z,19.30
2017-09-06T02:41:12.596Z,19.25
2017-09-06T02:43:43.676Z,19.26
2017-09-06T02:46:14.672Z,19.26
2017-09-06T02:48:44.319Z,19.22
2017-09-06T02:51:13.907Z,19.28
2017-09-06T02:53:43.464Z,19.24
2017-09-06T02:56:13.715Z,19.19
2017-09-06T02:58:43.300Z,19.18
2017-09-06T03:01:13.066Z,19.19
2017-09-06T03:03:44.189Z,19.13
2017-09-06T03:06:14.875Z,19.14
2017-09-06T03:08:44.769Z,19.08
2017-09-06T03:11:14.487Z,19.08
2017-09-06T03:13:44.111Z,19.12
2017-09-06T03:16:13.280Z,19.06
2017-09-06T03:18:43.425Z,19.12
2017-09-06T03:21:12.591Z,19.03
2017-09-06T03:23:43.255Z,19.11
2017-09-06T03:26:13.223Z,19.09
2017-09-06T03:28:43.199Z,19.04
2017-09-06T03:31:12.555Z,19.03
2017-09-06T03:33:43.370Z,19.05
2017-09-06T03:36:12.895Z,18.99
2017-09-06T03:38:43.387Z,18.91
2017-09-06T03:41:13.463Z,18.96
2017-09-06T03:43:43.651Z,18.95
2017-09-06T03:46:13.012Z,18.95
2017-09-06T03:48:43.793Z,18.94
2017-09-06T03:51:13.264Z,18.89
2017-09-06T03:53:43.140Z,18.86
2017-09-06T03:56:12.736Z,18.78
2017-09-06T03:58:43.134Z,18.73
2017-09-06T04:01:12.596Z,18.66
2017-09-06T04:03:43.931Z,18.69
2017-09-06T04:06:13.429Z,18.67
2017-09-06T04:08:43.270Z,18.67
2017-09-06T04:11:12.912Z,18.64
2017-09-06T04:13:43.912Z,18.60
2017-09-06T04:16:13.382Z,18.61
2017-09-06T04:21:17.162Z,18.55
2017-09-06T04:23:46.831Z,18.54
2017-09-06T04:26:16.291Z,18.55
2017-09-06T04:28:46.952Z,18.55
2017-09-06T04:31:16.528Z,18.53
2017-09-06T04:33:46.140Z,18.51
2017-09-06T04:36:15.783Z,18.53
2017-09-06T04:38:45.439Z,18.54
2017-09-06T04:41:14.823Z,18.51
2017-09-06T04:43:44.382Z,18.53
2017-09-06T04:46:13.947Z,18.47
2017-09-06T04:48:43.323Z,18.47
2017-09-06T04:51:13.196Z,18.44
2017-09-06T04:53:44.008Z,18.45
2017-09-06T04:56:13.561Z,18.40
2017-09-06T04:58:43.263Z,18.55
2017-09-06T05:01:12.655Z,18.48
2017-09-06T05:03:42.748Z,18.55
2017-09-06T05:06:12.743Z,18.55
2017-09-06T05:08:45.639Z,18.57
2017-09-06T05:11:14.979Z,18.54
2017-09-06T05:13:44.461Z,18.54
2017-09-06T05:16:13.968Z,18.56
2017-09-06T05:18:43.619Z,18.66
2017-09-06T05:21:13.513Z,18.60
2017-09-06T05:23:43.750Z,18.63
2017-09-06T05:26:13.096Z,18.65
2017-09-06T05:28:43.156Z,18.65
2017-09-06T05:31:13.687Z,18.67
2017-09-06T05:33:44.103Z,18.68
2017-09-06T05:36:13.556Z,18.72
2017-09-06T05:38:43.155Z,18.72
2017-09-06T05:41:12.740Z,18.67
2017-09-06T05:43:42.784Z,18.69
2017-09-06T05:46:12.027Z,18.75
2017-09-06T05:48:43.228Z,18.71
2017-09-06T05:51:12.391Z,18.82
2017-09-06T05:53:42.851Z,18.80
2017-09-06T05:56:12.299Z,18.82
2017-09-06T05:58:43.028Z,18.86
2017-09-06T06:01:12.203Z,18.88
2017-09-06T06:03:41.868Z,18.93
2017-09-06T06:06:11.347Z,18.93
2017-09-06T06:08:40.711Z,18.90
2017-09-06T06:11:10.167Z,18.93
2017-09-06T06:13:40.498Z,18.96
2017-09-06T06:16:10.201Z,19.01
2017-09-06T06:18:41.736Z,19.04
2017-09-06T06:21:11.045Z,19.15
2017-09-06T06:23:42.161Z,19.13
2017-09-06T06:26:11.983Z,19.17
2017-09-06T06:28:43.196Z,19.10
2017-09-06T06:31:12.423Z,19.18
2017-09-06T06:33:41.898Z,19.14
2017-09-06T06:36:11.459Z,19.19
2017-09-06T06:38:42.457Z,19.11
2017-09-06T06:41:12.033Z,19.16
2017-09-06T06:43:42.336Z,19.13
2017-09-06T06:46:11.553Z,19.16
2017-09-06T06:48:44.727Z,19.21
2017-09-06T06:51:13.950Z,19.27
2017-09-06T06:53:43.511Z,19.27
2017-09-06T06:56:12.779Z,19.30
2017-09-06T06:58:42.015Z,19.38
2017-09-06T07:01:11.509Z,19.46
2017-09-06T07:03:42.810Z,19.55
2017-09-06T07:06:12.019Z,19.54
2017-09-06T07:08:43.539Z,19.57
2017-09-06T07:11:12.705Z,19.58
2017-09-06T07:13:43.246Z,19.69
2017-09-06T07:16:12.739Z,19.92
2017-09-06T07:18:42.935Z,20.11
2017-09-06T07:21:12.383Z,20.25
2017-09-06T07:23:45.027Z,20.40
2017-09-06T07:26:14.199Z,20.51
2017-09-06T07:28:44.538Z,20.75
2017-09-06T07:31:14.127Z,20.96
2017-09-06T07:33:43.662Z,21.21
2017-09-06T07:36:13.051Z,21.33
2017-09-06T07:38:43.711Z,21.42
2017-09-06T07:41:13.571Z,21.44
2017-09-06T07:43:44.272Z,21.29
2017-09-06T07:46:13.759Z,21.10
2017-09-06T07:48:43.654Z,21.50
2017-09-06T07:51:13.091Z,22.03
2017-09-06T07:53:44.529Z,22.26
2017-09-06T07:56:13.705Z,22.19
2017-09-06T07:58:44.232Z,22.15
2017-09-06T08:01:13.710Z,22.13
2017-09-06T08:03:45.096Z,21.88
2017-09-06T08:06:15.294Z,22.29
2017-09-06T08:08:44.904Z,21.76
2017-09-06T08:11:14.107Z,22.01
2017-09-06T08:13:43.398Z,21.75
2017-09-06T08:16:12.897Z,21.63
2017-09-06T08:18:43.311Z,21.60
2017-09-06T08:21:12.581Z,21.30
2017-09-06T08:23:43.315Z,21.21
2017-09-06T08:26:12.827Z,21.09
2017-09-06T08:28:43.984Z,21.23
2017-09-06T08:31:13.881Z,21.26
2017-09-06T08:33:43.131Z,21.30
2017-09-06T08:36:12.338Z,20.97
2017-09-06T08:38:43.692Z,20.98
2017-09-06T08:41:12.911Z,21.06
2017-09-06T08:43:43.323Z,21.00
2017-09-06T08:46:12.772Z,21.05
2017-09-06T08:48:43.751Z,21.00
2017-09-06T08:51:14.507Z,21.14
2017-09-06T08:53:43.770Z,20.96
2017-09-06T08:56:12.979Z,20.99
2017-09-06T08:58:43.102Z,21.00
2017-09-06T09:01:12.273Z,21.11
2017-09-06T09:03:42.947Z,21.21
2017-09-06T09:06:12.571Z,21.33
2017-09-06T09:08:43.312Z,21.50
2017-09-06T09:11:12.744Z,21.49
2017-09-06T09:13:43.448Z,21.20
2017-09-06T09:16:12.643Z,21.05
2017-09-06T09:18:42.973Z,21.02
2017-09-06T09:21:12.827Z,21.22
2017-09-06T09:23:43.322Z,21.11
2017-09-06T09:26:12.847Z,21.31
2017-09-06T09:28:44.231Z,21.25
2017-09-06T09:31:13.786Z,21.25
2017-09-06T09:33:43.157Z,21.22
2017-09-06T09:36:12.679Z,21.15
2017-09-06T09:38:42.985Z,21.12
2017-09-06T09:41:12.162Z,21.22
2017-09-06T09:43:43.421Z,21.25
2017-09-06T09:46:12.615Z,21.27
2017-09-06T09:48:42.979Z,21.49
2017-09-06T09:51:12.700Z,21.58
2017-09-06T09:53:43.370Z,21.50
2017-09-06T09:56:12.564Z,21.61
2017-09-06T09:58:43.380Z,21.58
2017-09-06T10:01:12.640Z,21.81
2017-09-06T10:03:42.972Z,22.14
2017-09-06T10:06:12.537Z,22.56
2017-09-06T10:08:43.347Z,22.68
2017-09-06T10:11:12.515Z,22.44
2017-09-06T10:13:43.700Z,22.18
2017-09-06T10:16:12.971Z,21.92
2017-09-06T10:18:43.525Z,21.89
2017-09-06T10:21:14.444Z,21.73
2017-09-06T10:23:43.710Z,21.65
2017-09-06T10:26:12.896Z,21.46
2017-09-06T10:28:42.491Z,21.40
2017-09-06T10:31:11.970Z,21.33
2017-09-06T10:33:46.178Z,21.17
2017-09-06T10:36:16.029Z,20.92
2017-09-06T10:38:45.319Z,20.93
2017-09-06T10:41:14.499Z,20.92
2017-09-06T10:43:44.017Z,21.33
2017-09-06T10:46:13.203Z,21.41
2017-09-06T10:48:43.343Z,21.61
2017-09-06T10:51:16.823Z,21.82
2017-09-06T10:53:46.247Z,21.81
2017-09-06T10:56:15.996Z,21.76
2017-09-06T10:58:45.183Z,21.94
2017-09-06T11:01:14.584Z,21.93
2017-09-06T11:03:44.105Z,22.00
2017-09-06T11:06:13.311Z,21.95
2017-09-06T11:08:43.456Z,22.14
2017-09-06T11:11:12.917Z,22.21
2017-09-06T11:13:43.688Z,21.86
2017-09-06T11:16:12.892Z,21.48
2017-09-06T11:18:43.432Z,21.35
2017-09-06T11:21:12.739Z,21.14
2017-09-06T11:23:43.052Z,21.38
2017-09-06T11:26:12.630Z,21.69
2017-09-06T11:28:41.864Z,22.41
2017-09-06T11:31:11.083Z,23.02
2017-09-06T11:33:42.425Z,23.05
2017-09-06T11:36:11.885Z,23.12
2017-09-06T11:38:42.429Z,22.61
2017-09-06T11:41:11.908Z,22.18
2017-09-06T11:43:42.280Z,22.23
2017-09-06T11:46:12.439Z,21.64
2017-09-06T11:48:43.185Z,21.83
2017-09-06T11:51:12.545Z,21.71
2017-09-06T11:53:43.555Z,21.81
2017-09-06T11:56:13.124Z,21.89
2017-09-06T11:58:43.640Z,22.09
2017-09-06T12:01:12.935Z,22.04
2017-09-06T12:03:44.153Z,21.91
2017-09-06T12:06:16.633Z,22.05
2017-09-06T12:08:45.834Z,22.10
2017-09-06T12:11:15.554Z,22.15
2017-09-06T12:13:45.187Z,21.74
2017-09-06T12:16:14.549Z,21.62
2017-09-06T12:18:44.756Z,21.26
2017-09-06T12:21:14.415Z,21.11
2017-09-06T12:23:44.072Z,20.98
2017-09-06T12:26:13.699Z,21.06
2017-09-06T12:28:44.021Z,20.81
2017-09-06T12:31:13.291Z,20.69
2017-09-06T12:33:43.482Z,20.52
2017-09-06T12:36:13.361Z,20.02
2017-09-06T12:38:43.502Z,19.50
2017-09-06T12:41:13.253Z,19.25
2017-09-06T12:43:42.595Z,18.33
2017-09-06T12:46:11.907Z,18.39
2017-09-06T12:48:43.713Z,18.04
2017-09-06T12:51:13.115Z,17.71
2017-09-06T12:53:42.415Z,17.88
2017-09-06T12:56:11.939Z,17.57
2017-09-06T12:58:42.248Z,17.41
2017-09-06T13:01:11.715Z,17.31
2017-09-06T13:03:43.276Z,17.19
2017-09-06T13:06:12.738Z,17.34
2017-09-06T13:08:41.955Z,17.40
2017-09-06T13:11:11.972Z,17.29
2017-09-06T13:13:42.668Z,17.03
2017-09-06T13:16:12.364Z,17.27
2017-09-06T13:18:43.400Z,17.07
2017-09-06T13:21:12.688Z,17.19
2017-09-06T13:23:43.155Z,17.16
2017-09-06T13:26:12.842Z,17.21
2017-09-06T13:28:43.160Z,17.12
2017-09-06T13:31:12.542Z,17.11
2017-09-06T13:33:43.655Z,17.30
2017-09-06T13:36:13.071Z,17.39
2017-09-06T13:38:42.279Z,17.29
2017-09-06T13:41:12.172Z,17.38
2017-09-06T13:43:41.367Z,17.31
2017-09-06T13:46:10.679Z,17.38
2017-09-06T13:48:40.483Z,17.57
2017-09-06T13:51:09.860Z,17.45
2017-09-06T13:53:39.079Z,17.63
2017-09-06T13:56:08.699Z,17.41
2017-09-06T13:58:38.371Z,17.30
2017-09-06T14:01:07.668Z,17.23
2017-09-06T14:03:38.133Z,17.36
2017-09-06T14:06:07.423Z,17.13
2017-09-06T14:08:36.628Z,17.18
2017-09-06T14:11:06.084Z,17.23
2017-09-06T14:13:35.283Z,17.32
2017-09-06T14:16:04.492Z,17.53
2017-09-06T14:18:33.947Z,17.43
2017-09-06T14:21:03.118Z,17.39
2017-09-06T14:23:32.300Z,17.24
2017-09-06T14:26:01.788Z,17.26
2017-09-06T14:28:30.985Z,17.17
2017-09-06T14:31:00.176Z,17.00
2017-09-06T14:33:29.628Z,17.02
2017-09-06T14:35:58.838Z,16.90
2017-09-06T14:38:28.007Z,17.03
2017-09-06T14:40:57.470Z,17.07
2017-09-06T14:43:26.673Z,17.01
2017-09-06T14:45:55.856Z,16.91
2017-09-06T14:48:25.527Z,16.98
2017-09-06T14:50:54.760Z,16.93
2017-09-06T14:53:23.957Z,16.96
2017-09-06T14:55:53.587Z,16.93
2017-09-06T14:58:22.959Z,16.87
2017-09-06T15:00:52.155Z,16.91
2017-09-06T15:03:21.654Z,16.95
2017-09-06T15:05:50.919Z,16.90
2017-09-06T15:08:20.127Z,16.88
2017-09-06T15:10:49.585Z,16.98
2017-09-06T15:13:19.193Z,17.09
2017-09-06T15:15:48.720Z,17.30
2017-09-06T15:18:18.340Z,17.31
2017-09-06T15:20:47.547Z,17.43
2017-09-06T15:23:16.848Z,17.26
2017-09-06T15:25:46.376Z,17.25
2017-09-06T15:28:15.989Z,17.28
2017-09-06T15:30:45.244Z,17.19
2017-09-06T15:33:14.778Z,17.13
2017-09-06T15:35:43.991Z,17.12
2017-09-06T15:38:13.220Z,17.09
2017-09-06T15:40:42.771Z,16.97
2017-09-06T15:43:11.975Z,16.97
2017-09-06T15:45:42.925Z,17.01
2017-09-06T15:48:13.272Z,16.93
2017-09-06T15:50:43.023Z,16.94
2017-09-06T15:53:12.220Z,16.86
2017-09-06T15:55:42.709Z,16.97
2017-09-06T15:58:12.149Z,16.86
2017-09-06T16:00:41.369Z,16.86
2017-09-06T16:03:10.959Z,16.89
2017-09-06T16:05:40.537Z,17.00
2017-09-06T16:08:09.859Z,17.15
2017-09-06T16:10:39.427Z,17.26
2017-09-06T16:13:08.721Z,17.16
2017-09-06T16:15:38.387Z,17.24
2017-09-06T16:18:08.114Z,17.14
2017-09-06T16:20:37.307Z,17.14
2017-09-06T16:23:06.577Z,17.17
2017-09-06T16:25:36.571Z,17.15
2017-09-06T16:28:05.943Z,16.97
2017-09-06T16:30:35.238Z,17.04
2017-09-06T16:33:04.723Z,16.82
2017-09-06T16:35:35.352Z,16.77
2017-09-06T16:38:04.811Z,16.70
2017-09-06T16:40:34.380Z,16.66
2017-09-06T16:43:03.621Z,16.60
2017-09-06T16:45:32.848Z,16.63
2017-09-06T16:48:02.316Z,16.58
2017-09-06T16:50:31.580Z,16.62
2017-09-06T16:53:00.843Z,16.63
2017-09-06T16:55:30.367Z,16.65
2017-09-06T16:57:59.557Z,16.66
2017-09-06T17:00:28.759Z,16.70
2017-09-06T17:02:58.791Z,16.52
2017-09-06T17:05:28.282Z,16.45
2017-09-06T17:07:57.475Z,16.39
2017-09-06T17:10:27.647Z,16.31
2017-09-06T17:12:56.835Z,16.32
2017-09-06T17:15:26.023Z,16.26
2017-09-06T17:17:55.663Z,16.23
2017-09-06T17:20:24.903Z,16.26
2017-09-06T17:22:54.126Z,16.21
2017-09-06T17:25:23.802Z,16.21
2017-09-06T17:27:53.004Z,16.12
2017-09-06T17:30:22.337Z,16.20
2017-09-06T17:32:52.327Z,16.12
2017-09-06T17:35:21.676Z,16.14
2017-09-06T17:37:51.396Z,16.07
2017-09-06T17:40:21.020Z,15.98
2017-09-06T17:42:50.940Z,16.00
2017-09-06T17:45:20.236Z,15.99
2017-09-06T17:47:49.841Z,16.04
2017-09-06T17:50:19.395Z,16.00
2017-09-06T17:52:48.636Z,16.10
2017-09-06T17:55:18.255Z,16.05
2017-09-06T17:57:47.453Z,16.03
2017-09-06T18:00:16.631Z,16.04
2017-09-06T18:02:46.145Z,15.99
2017-09-06T18:05:16.580Z,16.03
2017-09-06T18:07:45.860Z,15.96
2017-09-06T18:10:15.411Z,15.92
2017-09-06T18:12:44.672Z,15.96
2017-09-06T18:15:14.772Z,15.90
2017-09-06T18:17:44.263Z,15.95
2017-09-06T18:20:14.528Z,15.86
2017-09-06T18:22:43.719Z,15.90
2017-09-06T18:25:14.400Z,15.94
2017-09-06T18:27:43.592Z,15.98
2017-09-06T18:30:14.103Z,16.05
2017-09-06T18:32:43.680Z,16.06
2017-09-06T18:35:12.903Z,15.98
2017-09-06T18:37:42.073Z,15.97
2017-09-06T18:40:13.811Z,16.02
2017-09-06T18:42:43.060Z,15.85
2017-09-06T18:45:13.342Z,15.87
2017-09-06T18:47:43.142Z,15.81
2017-09-06T18:50:14.226Z,15.77
2017-09-06T18:52:43.503Z,15.79
2017-09-06T18:55:13.032Z,15.61
2017-09-06T18:57:50.664Z,15.14
2017-09-06T19:00:19.890Z,14.81
2017-09-06T19:02:49.652Z,14.63
2017-09-06T19:05:18.872Z,14.49
2017-09-06T19:07:48.072Z,14.45
2017-09-06T19:10:19.795Z,14.34
2017-09-06T19:12:49.003Z,14.43
2017-09-06T19:15:18.303Z,14.45
2017-09-06T19:17:47.887Z,14.39
2017-09-06T19:20:17.082Z,14.55
2017-09-06T19:22:46.447Z,14.30
2017-09-06T19:25:15.947Z,14.23
2017-09-06T19:27:45.242Z,14.19
2017-09-06T19:30:14.507Z,13.93
2017-09-06T19:32:44.142Z,13.84
2017-09-06T19:35:13.356Z,14.22
2017-09-06T19:37:43.320Z,14.04
2017-09-06T19:40:12.827Z,14.27
2017-09-06T19:42:41.998Z,14.08
2017-09-06T19:45:13.367Z,13.83
2017-09-06T19:47:43.095Z,13.87
2017-09-06T19:50:12.795Z,13.98
2017-09-06T19:52:42.095Z,13.99
2017-09-06T19:55:12.427Z,14.15
2017-09-06T19:57:44.167Z,14.03
2017-09-06T20:00:13.911Z,14.06
2017-09-06T20:02:43.639Z,13.83
2017-09-06T20:05:13.550Z,13.99
2017-09-06T20:07:43.054Z,13.75
2017-09-06T20:10:12.660Z,13.63
2017-09-06T20:12:42.082Z,13.83
2017-09-06T20:15:11.576Z,13.78
2017-09-06T20:17:41.136Z,13.71
2017-09-06T20:20:10.418Z,13.72
2017-09-06T20:22:39.831Z,13.63
2017-09-06T20:25:09.355Z,13.60
2017-09-06T20:27:38.627Z,13.44
2017-09-06T20:30:08.017Z,13.56
2017-09-06T20:32:37.588Z,13.48
2017-09-06T20:35:07.379Z,13.52
2017-09-06T20:37:36.689Z,13.59
2017-09-06T20:40:06.329Z,13.44
2017-09-06T20:42:36.012Z,13.36
2017-09-06T20:45:07.183Z,13.32
2017-09-06T20:47:37.131Z,13.17
2017-09-06T20:50:06.343Z,13.31
2017-09-06T20:52:36.879Z,13.27
2017-09-06T20:55:06.370Z,13.29
2017-09-06T20:57:36.015Z,13.43
2017-09-06T21:00:05.679Z,13.56
2017-09-06T21:02:35.244Z,13.47
2017-09-06T21:05:04.830Z,13.42
2017-09-06T21:07:34.124Z,13.44
2017-09-06T21:10:05.502Z,13.43
2017-09-06T21:12:34.758Z,13.34
2017-09-06T21:15:04.099Z,13.29
2017-09-06T21:17:33.588Z,13.42
2017-09-06T21:20:02.899Z,13.41
2017-09-06T21:22:32.175Z,13.37
2017-09-06T21:25:02.866Z,13.43
2017-09-06T21:27:32.144Z,13.42
2017-09-06T21:30:01.386Z,13.35
2017-09-06T21:32:30.906Z,13.34
2017-09-06T21:35:00.142Z,13.52
2017-09-06T21:37:30.330Z,13.41
2017-09-06T21:40:00.043Z,13.42
2017-09-06T21:42:29.772Z,13.39
2017-09-06T21:44:59.007Z,13.41
2017-09-06T21:47:28.602Z,13.48
2017-09-06T21:49:57.882Z,13.57
2017-09-06T21:52:27.316Z,13.55
2017-09-06T21:54:57.124Z,13.55
2017-09-06T21:57:26.585Z,13.58
2017-09-06T21:59:55.796Z,13.62
2017-09-06T22:02:25.298Z,13.62
2017-09-06T22:04:55.188Z,13.63
2017-09-06T22:07:24.433Z,13.56
2017-09-06T22:09:54.230Z,13.63
2017-09-06T22:12:23.418Z,13.62
2017-09-06T22:14:52.991Z,13.58
2017-09-06T22:17:24.054Z,13.57
2017-09-06T22:19:55.882Z,13.64
2017-09-06T22:22:25.116Z,13.75
2017-09-06T22:24:54.732Z,13.64
2017-09-06T22:27:23.955Z,13.72
2017-09-06T22:29:53.184Z,13.72
2017-09-06T22:32:23.115Z,13.66
2017-09-06T22:34:52.359Z,13.58
2017-09-06T22:37:21.614Z,13.56
2017-09-06T22:39:51.167Z,13.55
2017-09-06T22:42:20.375Z,13.53
2017-09-06T22:44:49.632Z,13.49
2017-09-06T22:47:19.535Z,13.46
2017-09-06T22:52:41.062Z,13.53
2017-09-06T22:55:11.915Z,13.48
2017-09-06T22:57:41.373Z,13.48
2017-09-06T23:00:16.539Z,13.38
2017-09-06T23:02:45.983Z,13.42
2017-09-06T23:05:15.983Z,13.42
2017-09-06T23:07:45.531Z,13.52
2017-09-06T23:10:14.783Z,13.46
2017-09-06T23:12:44.491Z,13.50
2017-09-06T23:15:14.660Z,13.38
2017-09-06T23:17:44.163Z,13.28
2017-09-06T23:20:14.906Z,13.29
2017-09-06T23:22:44.336Z,13.15
2017-09-06T23:25:15.757Z,13.18
2017-09-06T23:27:45.625Z,13.16
2017-09-06T23:30:18.625Z,13.14
2017-09-06T23:32:48.598Z,13.19
2017-09-06T23:35:19.027Z,13.28
2017-09-06T23:37:48.425Z,13.17
2017-09-06T23:40:18.179Z,13.28
2017-09-06T23:42:47.690Z,13.20
2017-09-06T23:45:17.588Z,13.20
2017-09-06T23:47:47.364Z,13.16
2017-09-06T23:50:17.059Z,13.22
2017-09-06T23:52:46.531Z,13.20
2017-09-06T23:55:16.350Z,13.21
2017-09-06T23:57:45.901Z,13.12
